sensor_id;sensor_type;location;lat;lon;timestamp;P1;durP1;ratioP1;P2;durP2;ratioP2
8500;SDS011;4288;48.484;10.024;2022-10-19T00:01:13;7.53;;;3.57;;
8500;SDS011;4288;48.484;10.024;2022-10-19T00:03:43;10.23;;;4.03;;
8500;SDS011;4288;48.484;10.024;2022-10-19T00:06:15;10.60;;;4.23;;
8500;SDS011;4288;48.484;10.024;2022-10-19T00:08:49;8.40;;;3.30;;
8500;SDS011;4288;48.484;10.024;2022-10-19T00:11:16;5.63;;;3.10;;
8500;SDS011;4288;48.484;10.024;2022-10-19T00:13:44;6.33;;;3.13;;
8500;SDS011;4288;48.484;10.024;2022-10-19T00:16:12;4.87;;;2.63;;
8500;SDS011;4288;48.484;10.024;2022-10-19T00:18:41;6.60;;;3.37;;
8500;SDS011;4288;48.484;10.024;2022-10-19T00:21:10;6.20;;;3.07;;
8500;SDS011;4288;48.484;10.024;2022-10-19T00:23:40;4.77;;;3.00;;
8500;SDS011;4288;48.484;10.024;2022-10-19T00:26:08;9.73;;;3.57;;
8500;SDS011;4288;48.484;10.024;2022-10-19T00:28:36;5.83;;;2.60;;
8500;SDS011;4288;48.484;10.024;2022-10-19T00:31:04;6.83;;;3.30;;
8500;SDS011;4288;48.484;10.024;2022-10-19T00:33:33;5.93;;;3.07;;
8500;SDS011;4288;48.484;10.024;2022-10-19T00:36:01;8.63;;;3.20;;
8500;SDS011;4288;48.484;10.024;2022-10-19T00:38:29;9.93;;;2.90;;
8500;SDS011;4288;48.484;10.024;2022-10-19T00:40:58;4.83;;;2.80;;
8500;SDS011;4288;48.484;10.024;2022-10-19T00:43:29;6.13;;;2.80;;
8500;SDS011;4288;48.484;10.024;2022-10-19T00:45:56;7.07;;;3.10;;
8500;SDS011;4288;48.484;10.024;2022-10-19T00:48:25;6.73;;;2.70;;
8500;SDS011;4288;48.484;10.024;2022-10-19T00:50:55;6.50;;;2.60;;
8500;SDS011;4288;48.484;10.024;2022-10-19T00:53:25;6.00;;;2.57;;
8500;SDS011;4288;48.484;10.024;2022-10-19T00:55:55;6.90;;;3.00;;
8500;SDS011;4288;48.484;10.024;2022-10-19T00:58:25;5.50;;;2.63;;
8500;SDS011;4288;48.484;10.024;2022-10-19T01:00:52;4.03;;;2.83;;
8500;SDS011;4288;48.484;10.024;2022-10-19T01:03:19;9.67;;;2.67;;
8500;SDS011;4288;48.484;10.024;2022-10-19T01:05:47;4.53;;;2.87;;
8500;SDS011;4288;48.484;10.024;2022-10-19T01:08:15;9.00;;;3.40;;
8500;SDS011;4288;48.484;10.024;2022-10-19T01:10:43;4.03;;;2.53;;
8500;SDS011;4288;48.484;10.024;2022-10-19T01:13:23;5.53;;;3.33;;
8500;SDS011;4288;48.484;10.024;2022-10-19T01:16:06;3.80;;;2.47;;
8500;SDS011;4288;48.484;10.024;2022-10-19T01:18:43;5.43;;;2.43;;
8500;SDS011;4288;48.484;10.024;2022-10-19T01:21:20;8.53;;;3.00;;
8500;SDS011;4288;48.484;10.024;2022-10-19T01:24:07;10.43;;;3.20;;
8500;SDS011;4288;48.484;10.024;2022-10-19T01:30:22;2.87;;;2.30;;
8500;SDS011;4288;48.484;10.024;2022-10-19T01:33:10;5.37;;;2.57;;
8500;SDS011;4288;48.484;10.024;2022-10-19T01:36:03;4.83;;;2.57;;
8500;SDS011;4288;48.484;10.024;2022-10-19T01:38:40;4.30;;;2.00;;
8500;SDS011;4288;48.484;10.024;2022-10-19T01:41:16;4.67;;;2.30;;
8500;SDS011;4288;48.484;10.024;2022-10-19T01:43:53;7.23;;;2.57;;
8500;SDS011;4288;48.484;10.024;2022-10-19T01:46:28;3.73;;;2.13;;
8500;SDS011;4288;48.484;10.024;2022-10-19T01:49:03;5.23;;;2.20;;
8500;SDS011;4288;48.484;10.024;2022-10-19T01:51:38;5.20;;;2.70;;
8500;SDS011;4288;48.484;10.024;2022-10-19T01:54:11;4.90;;;2.10;;
8500;SDS011;4288;48.484;10.024;2022-10-19T01:56:41;2.87;;;2.07;;
8500;SDS011;4288;48.484;10.024;2022-10-19T01:59:12;5.17;;;2.20;;
8500;SDS011;4288;48.484;10.024;2022-10-19T02:01:44;4.90;;;2.13;;
8500;SDS011;4288;48.484;10.024;2022-10-19T02:04:14;2.23;;;1.70;;
8500;SDS011;4288;48.484;10.024;2022-10-19T02:06:44;3.53;;;2.23;;
8500;SDS011;4288;48.484;10.024;2022-10-19T02:09:12;3.20;;;2.30;;
8500;SDS011;4288;48.484;10.024;2022-10-19T02:11:43;2.93;;;2.33;;
8500;SDS011;4288;48.484;10.024;2022-10-19T02:14:13;2.73;;;2.00;;
8500;SDS011;4288;48.484;10.024;2022-10-19T02:16:45;2.70;;;1.97;;
8500;SDS011;4288;48.484;10.024;2022-10-19T02:19:16;2.67;;;2.10;;
8500;SDS011;4288;48.484;10.024;2022-10-19T02:21:46;3.70;;;2.00;;
8500;SDS011;4288;48.484;10.024;2022-10-19T02:24:13;3.90;;;1.80;;
8500;SDS011;4288;48.484;10.024;2022-10-19T02:26:41;2.83;;;1.90;;
8500;SDS011;4288;48.484;10.024;2022-10-19T02:29:08;1.77;;;1.60;;
8500;SDS011;4288;48.484;10.024;2022-10-19T02:31:38;2.47;;;2.00;;
8500;SDS011;4288;48.484;10.024;2022-10-19T02:34:07;2.30;;;2.07;;
8500;SDS011;4288;48.484;10.024;2022-10-19T02:36:35;3.27;;;1.93;;
8500;SDS011;4288;48.484;10.024;2022-10-19T02:39:02;1.77;;;1.67;;
8500;SDS011;4288;48.484;10.024;2022-10-19T02:41:33;1.70;;;1.60;;
8500;SDS011;4288;48.484;10.024;2022-10-19T02:44:05;2.53;;;1.73;;
8500;SDS011;4288;48.484;10.024;2022-10-19T02:46:38;2.20;;;1.70;;
8500;SDS011;4288;48.484;10.024;2022-10-19T02:49:10;3.43;;;1.90;;
8500;SDS011;4288;48.484;10.024;2022-10-19T02:51:39;4.13;;;2.43;;
8500;SDS011;4288;48.484;10.024;2022-10-19T02:54:22;4.00;;;1.73;;
8500;SDS011;4288;48.484;10.024;2022-10-19T02:56:50;4.40;;;2.10;;
8500;SDS011;4288;48.484;10.024;2022-10-19T02:59:17;2.07;;;1.90;;
8500;SDS011;4288;48.484;10.024;2022-10-19T03:01:44;2.10;;;1.60;;
8500;SDS011;4288;48.484;10.024;2022-10-19T03:04:13;2.67;;;2.00;;
8500;SDS011;4288;48.484;10.024;2022-10-19T03:06:40;5.73;;;2.10;;
8500;SDS011;4288;48.484;10.024;2022-10-19T03:09:08;1.63;;;1.30;;
8500;SDS011;4288;48.484;10.024;2022-10-19T03:11:35;2.53;;;1.80;;
8500;SDS011;4288;48.484;10.024;2022-10-19T03:14:02;2.03;;;1.57;;
8500;SDS011;4288;48.484;10.024;2022-10-19T03:16:29;3.03;;;1.97;;
8500;SDS011;4288;48.484;10.024;2022-10-19T03:18:56;2.83;;;1.77;;
8500;SDS011;4288;48.484;10.024;2022-10-19T03:21:25;3.83;;;2.07;;
8500;SDS011;4288;48.484;10.024;2022-10-19T03:23:52;4.43;;;1.93;;
8500;SDS011;4288;48.484;10.024;2022-10-19T03:26:19;4.03;;;1.90;;
8500;SDS011;4288;48.484;10.024;2022-10-19T03:28:46;3.03;;;1.70;;
8500;SDS011;4288;48.484;10.024;2022-10-19T03:31:13;3.00;;;1.63;;
8500;SDS011;4288;48.484;10.024;2022-10-19T03:33:41;2.13;;;1.80;;
8500;SDS011;4288;48.484;10.024;2022-10-19T03:36:14;2.40;;;1.50;;
8500;SDS011;4288;48.484;10.024;2022-10-19T03:38:47;3.10;;;1.97;;
8500;SDS011;4288;48.484;10.024;2022-10-19T03:41:16;4.50;;;1.80;;
8500;SDS011;4288;48.484;10.024;2022-10-19T03:43:43;2.30;;;1.43;;
8500;SDS011;4288;48.484;10.024;2022-10-19T03:46:11;2.00;;;1.80;;
8500;SDS011;4288;48.484;10.024;2022-10-19T03:48:38;4.77;;;2.13;;
8500;SDS011;4288;48.484;10.024;2022-10-19T03:51:06;4.27;;;1.93;;
8500;SDS011;4288;48.484;10.024;2022-10-19T03:53:35;1.40;;;1.30;;
8500;SDS011;4288;48.484;10.024;2022-10-19T03:56:05;2.53;;;1.50;;
8500;SDS011;4288;48.484;10.024;2022-10-19T03:58:35;2.37;;;1.63;;
8500;SDS011;4288;48.484;10.024;2022-10-19T04:01:05;2.83;;;1.60;;
8500;SDS011;4288;48.484;10.024;2022-10-19T04:03:35;5.33;;;1.80;;
8500;SDS011;4288;48.484;10.024;2022-10-19T04:06:03;2.93;;;2.20;;
8500;SDS011;4288;48.484;10.024;2022-10-19T04:08:32;2.90;;;1.50;;
8500;SDS011;4288;48.484;10.024;2022-10-19T04:11:00;3.30;;;1.80;;
8500;SDS011;4288;48.484;10.024;2022-10-19T04:13:29;5.03;;;1.80;;
8500;SDS011;4288;48.484;10.024;2022-10-19T04:15:57;2.50;;;1.97;;
8500;SDS011;4288;48.484;10.024;2022-10-19T04:18:24;1.43;;;1.33;;
8500;SDS011;4288;48.484;10.024;2022-10-19T04:20:55;1.83;;;1.73;;
8500;SDS011;4288;48.484;10.024;2022-10-19T04:23:25;3.53;;;1.80;;
8500;SDS011;4288;48.484;10.024;2022-10-19T04:25:57;5.23;;;1.60;;
8500;SDS011;4288;48.484;10.024;2022-10-19T04:28:25;2.77;;;1.70;;
8500;SDS011;4288;48.484;10.024;2022-10-19T04:30:54;1.50;;;1.40;;
8500;SDS011;4288;48.484;10.024;2022-10-19T04:33:21;3.13;;;1.73;;
8500;SDS011;4288;48.484;10.024;2022-10-19T04:35:48;2.00;;;1.50;;
8500;SDS011;4288;48.484;10.024;2022-10-19T04:38:15;2.50;;;2.03;;
8500;SDS011;4288;48.484;10.024;2022-10-19T04:40:43;3.67;;;1.93;;
8500;SDS011;4288;48.484;10.024;2022-10-19T04:43:10;2.27;;;1.60;;
8500;SDS011;4288;48.484;10.024;2022-10-19T04:45:37;2.10;;;1.70;;
8500;SDS011;4288;48.484;10.024;2022-10-19T04:48:05;2.67;;;2.00;;
8500;SDS011;4288;48.484;10.024;2022-10-19T04:50:33;2.13;;;1.80;;
8500;SDS011;4288;48.484;10.024;2022-10-19T04:53:00;1.73;;;1.63;;
8500;SDS011;4288;48.484;10.024;2022-10-19T04:55:27;1.53;;;1.40;;
8500;SDS011;4288;48.484;10.024;2022-10-19T04:57:54;2.33;;;1.67;;
8500;SDS011;4288;48.484;10.024;2022-10-19T05:00:21;1.60;;;1.50;;
8500;SDS011;4288;48.484;10.024;2022-10-19T05:02:48;2.90;;;1.90;;
8500;SDS011;4288;48.484;10.024;2022-10-19T05:05:17;1.50;;;1.33;;
8500;SDS011;4288;48.484;10.024;2022-10-19T05:07:44;3.23;;;2.27;;
8500;SDS011;4288;48.484;10.024;2022-10-19T05:10:13;4.50;;;1.67;;
8500;SDS011;4288;48.484;10.024;2022-10-19T05:12:40;4.40;;;1.97;;
8500;SDS011;4288;48.484;10.024;2022-10-19T05:15:08;3.33;;;1.70;;
8500;SDS011;4288;48.484;10.024;2022-10-19T05:17:36;2.03;;;1.40;;
8500;SDS011;4288;48.484;10.024;2022-10-19T05:20:03;3.37;;;1.83;;
8500;SDS011;4288;48.484;10.024;2022-10-19T05:22:33;6.30;;;1.87;;
8500;SDS011;4288;48.484;10.024;2022-10-19T05:25:00;2.53;;;1.70;;
8500;SDS011;4288;48.484;10.024;2022-10-19T05:27:27;5.73;;;1.63;;
8500;SDS011;4288;48.484;10.024;2022-10-19T05:29:55;2.47;;;1.77;;
8500;SDS011;4288;48.484;10.024;2022-10-19T05:32:22;3.80;;;1.60;;
8500;SDS011;4288;48.484;10.024;2022-10-19T05:34:49;4.27;;;1.60;;
8500;SDS011;4288;48.484;10.024;2022-10-19T05:37:16;1.83;;;1.73;;
8500;SDS011;4288;48.484;10.024;2022-10-19T05:39:45;3.80;;;2.80;;
8500;SDS011;4288;48.484;10.024;2022-10-19T05:42:12;2.67;;;1.53;;
8500;SDS011;4288;48.484;10.024;2022-10-19T05:44:39;4.13;;;2.23;;
8500;SDS011;4288;48.484;10.024;2022-10-19T05:47:06;1.60;;;1.50;;
8500;SDS011;4288;48.484;10.024;2022-10-19T05:49:33;4.30;;;1.90;;
8500;SDS011;4288;48.484;10.024;2022-10-19T05:52:00;4.00;;;1.50;;
8500;SDS011;4288;48.484;10.024;2022-10-19T05:54:27;10.97;;;2.00;;
8500;SDS011;4288;48.484;10.024;2022-10-19T05:56:56;7.93;;;1.70;;
8500;SDS011;4288;48.484;10.024;2022-10-19T05:59:23;2.20;;;1.70;;
8500;SDS011;4288;48.484;10.024;2022-10-19T06:01:50;1.97;;;1.87;;
8500;SDS011;4288;48.484;10.024;2022-10-19T06:04:17;3.20;;;1.70;;
8500;SDS011;4288;48.484;10.024;2022-10-19T06:06:44;2.83;;;2.27;;
8500;SDS011;4288;48.484;10.024;2022-10-19T06:09:12;1.97;;;1.70;;
8500;SDS011;4288;48.484;10.024;2022-10-19T06:11:39;2.37;;;1.90;;
8500;SDS011;4288;48.484;10.024;2022-10-19T06:14:09;3.50;;;2.13;;
8500;SDS011;4288;48.484;10.024;2022-10-19T06:16:39;2.67;;;1.83;;
8500;SDS011;4288;48.484;10.024;2022-10-19T06:19:06;9.63;;;2.20;;
8500;SDS011;4288;48.484;10.024;2022-10-19T06:21:34;4.50;;;2.30;;
8500;SDS011;4288;48.484;10.024;2022-10-19T06:24:01;2.80;;;2.30;;
8500;SDS011;4288;48.484;10.024;2022-10-19T06:26:31;4.97;;;2.60;;
8500;SDS011;4288;48.484;10.024;2022-10-19T06:29:00;4.23;;;1.80;;
8500;SDS011;4288;48.484;10.024;2022-10-19T06:31:30;2.60;;;1.90;;
8500;SDS011;4288;48.484;10.024;2022-10-19T06:33:58;3.70;;;1.80;;
8500;SDS011;4288;48.484;10.024;2022-10-19T06:36:27;3.40;;;1.93;;
8500;SDS011;4288;48.484;10.024;2022-10-19T06:38:55;2.70;;;2.23;;
8500;SDS011;4288;48.484;10.024;2022-10-19T06:41:25;3.97;;;2.33;;
8500;SDS011;4288;48.484;10.024;2022-10-19T06:43:53;2.27;;;2.07;;
8500;SDS011;4288;48.484;10.024;2022-10-19T06:46:22;6.80;;;2.17;;
8500;SDS011;4288;48.484;10.024;2022-10-19T06:48:52;3.53;;;2.10;;
8500;SDS011;4288;48.484;10.024;2022-10-19T06:51:22;6.10;;;2.63;;
8500;SDS011;4288;48.484;10.024;2022-10-19T06:53:51;3.80;;;2.27;;
8500;SDS011;4288;48.484;10.024;2022-10-19T06:56:18;3.47;;;2.37;;
8500;SDS011;4288;48.484;10.024;2022-10-19T06:58:46;3.37;;;2.43;;
8500;SDS011;4288;48.484;10.024;2022-10-19T07:01:14;4.87;;;2.70;;
8500;SDS011;4288;48.484;10.024;2022-10-19T07:03:41;4.47;;;2.50;;
8500;SDS011;4288;48.484;10.024;2022-10-19T07:06:10;4.50;;;2.80;;
8500;SDS011;4288;48.484;10.024;2022-10-19T07:08:39;4.87;;;2.37;;
8500;SDS011;4288;48.484;10.024;2022-10-19T07:11:08;2.80;;;2.03;;
8500;SDS011;4288;48.484;10.024;2022-10-19T07:13:37;3.10;;;2.33;;
8500;SDS011;4288;48.484;10.024;2022-10-19T07:16:05;3.87;;;2.33;;
8500;SDS011;4288;48.484;10.024;2022-10-19T07:18:35;12.13;;;3.00;;
8500;SDS011;4288;48.484;10.024;2022-10-19T07:21:05;2.77;;;2.20;;
8500;SDS011;4288;48.484;10.024;2022-10-19T07:23:36;3.20;;;2.23;;
8500;SDS011;4288;48.484;10.024;2022-10-19T07:26:06;3.80;;;2.60;;
8500;SDS011;4288;48.484;10.024;2022-10-19T07:28:36;5.43;;;2.90;;
8500;SDS011;4288;48.484;10.024;2022-10-19T07:31:06;4.50;;;2.70;;
8500;SDS011;4288;48.484;10.024;2022-10-19T07:33:35;5.10;;;2.60;;
8500;SDS011;4288;48.484;10.024;2022-10-19T07:36:03;3.50;;;2.67;;
8500;SDS011;4288;48.484;10.024;2022-10-19T07:38:32;6.83;;;3.20;;
8500;SDS011;4288;48.484;10.024;2022-10-19T07:41:02;3.10;;;2.47;;
8500;SDS011;4288;48.484;10.024;2022-10-19T07:43:32;6.33;;;3.13;;
8500;SDS011;4288;48.484;10.024;2022-10-19T07:46:00;3.50;;;3.00;;
8500;SDS011;4288;48.484;10.024;2022-10-19T07:48:30;5.10;;;2.50;;
8500;SDS011;4288;48.484;10.024;2022-10-19T07:50:59;7.87;;;2.87;;
8500;SDS011;4288;48.484;10.024;2022-10-19T07:53:27;5.10;;;3.17;;
8500;SDS011;4288;48.484;10.024;2022-10-19T07:55:54;5.13;;;3.43;;
8500;SDS011;4288;48.484;10.024;2022-10-19T07:58:23;5.30;;;3.23;;
8500;SDS011;4288;48.484;10.024;2022-10-19T08:00:50;4.80;;;2.90;;
8500;SDS011;4288;48.484;10.024;2022-10-19T08:03:17;6.60;;;3.23;;
8500;SDS011;4288;48.484;10.024;2022-10-19T08:05:44;5.27;;;3.50;;
8500;SDS011;4288;48.484;10.024;2022-10-19T08:08:11;5.73;;;3.50;;
8500;SDS011;4288;48.484;10.024;2022-10-19T08:10:38;5.90;;;3.33;;
8500;SDS011;4288;48.484;10.024;2022-10-19T08:13:05;8.20;;;3.40;;
8500;SDS011;4288;48.484;10.024;2022-10-19T08:15:34;4.50;;;3.17;;
8500;SDS011;4288;48.484;10.024;2022-10-19T08:18:01;10.03;;;4.30;;
8500;SDS011;4288;48.484;10.024;2022-10-19T08:20:28;9.27;;;3.50;;
8500;SDS011;4288;48.484;10.024;2022-10-19T08:22:55;4.13;;;3.27;;
8500;SDS011;4288;48.484;10.024;2022-10-19T08:25:22;7.50;;;3.47;;
8500;SDS011;4288;48.484;10.024;2022-10-19T08:27:49;9.63;;;3.30;;
8500;SDS011;4288;48.484;10.024;2022-10-19T08:30:16;6.87;;;3.27;;
8500;SDS011;4288;48.484;10.024;2022-10-19T08:32:45;7.57;;;3.63;;
8500;SDS011;4288;48.484;10.024;2022-10-19T08:35:12;5.00;;;2.70;;
8500;SDS011;4288;48.484;10.024;2022-10-19T08:37:40;4.20;;;2.77;;
8500;SDS011;4288;48.484;10.024;2022-10-19T08:40:08;3.17;;;2.70;;
8500;SDS011;4288;48.484;10.024;2022-10-19T08:42:49;4.10;;;3.23;;
8500;SDS011;4288;48.484;10.024;2022-10-19T08:48:20;8.07;;;3.00;;
8500;SDS011;4288;48.484;10.024;2022-10-19T08:50:52;9.93;;;3.50;;
8500;SDS011;4288;48.484;10.024;2022-10-19T08:53:22;7.30;;;3.03;;
8500;SDS011;4288;48.484;10.024;2022-10-19T08:56:02;4.00;;;2.70;;
8500;SDS011;4288;48.484;10.024;2022-10-19T08:58:47;5.17;;;3.20;;
8500;SDS011;4288;48.484;10.024;2022-10-19T09:01:32;7.10;;;3.00;;
8500;SDS011;4288;48.484;10.024;2022-10-19T09:04:11;3.07;;;2.70;;
8500;SDS011;4288;48.484;10.024;2022-10-19T09:06:48;3.20;;;2.80;;
8500;SDS011;4288;48.484;10.024;2022-10-19T09:09:28;9.13;;;3.27;;
8500;SDS011;4288;48.484;10.024;2022-10-19T09:12:00;10.77;;;3.00;;
8500;SDS011;4288;48.484;10.024;2022-10-19T09:14:32;5.33;;;3.10;;
8500;SDS011;4288;48.484;10.024;2022-10-19T09:17:09;8.80;;;2.90;;
8500;SDS011;4288;48.484;10.024;2022-10-19T09:19:41;6.00;;;3.20;;
8500;SDS011;4288;48.484;10.024;2022-10-19T09:22:11;5.40;;;3.40;;
8500;SDS011;4288;48.484;10.024;2022-10-19T09:24:46;6.70;;;3.27;;
8500;SDS011;4288;48.484;10.024;2022-10-19T09:27:19;13.90;;;3.83;;
8500;SDS011;4288;48.484;10.024;2022-10-19T09:29:50;9.73;;;3.83;;
8500;SDS011;4288;48.484;10.024;2022-10-19T09:32:22;7.07;;;3.10;;
8500;SDS011;4288;48.484;10.024;2022-10-19T09:34:55;5.93;;;3.10;;
8500;SDS011;4288;48.484;10.024;2022-10-19T09:37:26;11.00;;;3.70;;
8500;SDS011;4288;48.484;10.024;2022-10-19T09:39:55;7.23;;;2.87;;
8500;SDS011;4288;48.484;10.024;2022-10-19T09:42:22;5.70;;;3.80;;
8500;SDS011;4288;48.484;10.024;2022-10-19T09:44:54;13.00;;;3.80;;
8500;SDS011;4288;48.484;10.024;2022-10-19T09:47:31;16.60;;;4.10;;
8500;SDS011;4288;48.484;10.024;2022-10-19T09:52:51;14.40;;;3.87;;
8500;SDS011;4288;48.484;10.024;2022-10-19T09:55:26;18.70;;;3.90;;
8500;SDS011;4288;48.484;10.024;2022-10-19T09:58:00;19.27;;;4.63;;
8500;SDS011;4288;48.484;10.024;2022-10-19T10:00:31;16.67;;;5.20;;
8500;SDS011;4288;48.484;10.024;2022-10-19T10:03:02;10.50;;;4.20;;
8500;SDS011;4288;48.484;10.024;2022-10-19T10:05:33;11.07;;;3.60;;
8500;SDS011;4288;48.484;10.024;2022-10-19T10:08:03;14.80;;;4.00;;
8500;SDS011;4288;48.484;10.024;2022-10-19T10:10:41;14.63;;;4.20;;
8500;SDS011;4288;48.484;10.024;2022-10-19T10:13:12;21.57;;;3.70;;
8500;SDS011;4288;48.484;10.024;2022-10-19T10:15:46;13.30;;;4.03;;
8500;SDS011;4288;48.484;10.024;2022-10-19T10:18:16;20.80;;;3.90;;
8500;SDS011;4288;48.484;10.024;2022-10-19T10:21:02;13.97;;;6.17;;
8500;SDS011;4288;48.484;10.024;2022-10-19T10:23:40;15.60;;;3.60;;
8500;SDS011;4288;48.484;10.024;2022-10-19T10:26:14;14.50;;;3.37;;
8500;SDS011;4288;48.484;10.024;2022-10-19T10:28:47;11.13;;;3.77;;
8500;SDS011;4288;48.484;10.024;2022-10-19T10:31:18;9.60;;;3.70;;
8500;SDS011;4288;48.484;10.024;2022-10-19T10:33:53;14.27;;;3.83;;
8500;SDS011;4288;48.484;10.024;2022-10-19T10:36:27;12.20;;;3.63;;
8500;SDS011;4288;48.484;10.024;2022-10-19T10:38:57;10.70;;;3.47;;
8500;SDS011;4288;48.484;10.024;2022-10-19T10:41:35;15.67;;;4.17;;
8500;SDS011;4288;48.484;10.024;2022-10-19T10:44:05;11.63;;;3.60;;
8500;SDS011;4288;48.484;10.024;2022-10-19T10:46:44;12.60;;;5.23;;
8500;SDS011;4288;48.484;10.024;2022-10-19T10:49:20;9.63;;;3.50;;
8500;SDS011;4288;48.484;10.024;2022-10-19T10:51:53;6.67;;;2.83;;
8500;SDS011;4288;48.484;10.024;2022-10-19T10:54:23;7.40;;;3.40;;
8500;SDS011;4288;48.484;10.024;2022-10-19T10:57:00;9.53;;;3.80;;
8500;SDS011;4288;48.484;10.024;2022-10-19T10:59:38;12.47;;;3.00;;
8500;SDS011;4288;48.484;10.024;2022-10-19T11:02:16;8.77;;;3.27;;
8500;SDS011;4288;48.484;10.024;2022-10-19T11:05:05;4.43;;;3.03;;
8500;SDS011;4288;48.484;10.024;2022-10-19T11:07:41;33.73;;;3.97;;
8500;SDS011;4288;48.484;10.024;2022-10-19T11:10:13;6.20;;;3.43;;
8500;SDS011;4288;48.484;10.024;2022-10-19T11:12:50;6.97;;;2.93;;
8500;SDS011;4288;48.484;10.024;2022-10-19T11:15:29;8.37;;;3.63;;
8500;SDS011;4288;48.484;10.024;2022-10-19T11:18:05;8.70;;;3.87;;
8500;SDS011;4288;48.484;10.024;2022-10-19T11:20:43;6.50;;;2.77;;
8500;SDS011;4288;48.484;10.024;2022-10-19T11:23:25;12.30;;;3.70;;
8500;SDS011;4288;48.484;10.024;2022-10-19T11:26:17;12.60;;;3.93;;
8500;SDS011;4288;48.484;10.024;2022-10-19T11:29:05;11.10;;;4.10;;
8500;SDS011;4288;48.484;10.024;2022-10-19T11:31:49;4.33;;;3.63;;
8500;SDS011;4288;48.484;10.024;2022-10-19T11:37:22;5.53;;;3.13;;
8500;SDS011;4288;48.484;10.024;2022-10-19T11:40:01;4.87;;;2.80;;
8500;SDS011;4288;48.484;10.024;2022-10-19T11:42:40;11.40;;;3.77;;
8500;SDS011;4288;48.484;10.024;2022-10-19T11:45:21;7.43;;;3.37;;
8500;SDS011;4288;48.484;10.024;2022-10-19T11:48:04;10.53;;;3.90;;
8500;SDS011;4288;48.484;10.024;2022-10-19T11:51:01;7.60;;;3.17;;
8500;SDS011;4288;48.484;10.024;2022-10-19T11:53:36;12.73;;;3.33;;
8500;SDS011;4288;48.484;10.024;2022-10-19T11:56:17;7.50;;;3.73;;
8500;SDS011;4288;48.484;10.024;2022-10-19T11:58:54;4.93;;;2.77;;
8500;SDS011;4288;48.484;10.024;2022-10-19T12:01:29;8.90;;;4.10;;
8500;SDS011;4288;48.484;10.024;2022-10-19T12:04:22;11.43;;;3.60;;
8500;SDS011;4288;48.484;10.024;2022-10-19T12:07:05;8.57;;;3.63;;
8500;SDS011;4288;48.484;10.024;2022-10-19T12:09:53;6.03;;;2.97;;
8500;SDS011;4288;48.484;10.024;2022-10-19T12:12:34;10.83;;;4.10;;
8500;SDS011;4288;48.484;10.024;2022-10-19T12:15:16;13.80;;;3.20;;
8500;SDS011;4288;48.484;10.024;2022-10-19T12:17:56;7.00;;;3.23;;
8500;SDS011;4288;48.484;10.024;2022-10-19T12:20:30;6.90;;;3.17;;
8500;SDS011;4288;48.484;10.024;2022-10-19T12:23:04;4.40;;;3.00;;
8500;SDS011;4288;48.484;10.024;2022-10-19T12:25:49;6.30;;;3.73;;
8500;SDS011;4288;48.484;10.024;2022-10-19T12:28:21;6.23;;;3.20;;
8500;SDS011;4288;48.484;10.024;2022-10-19T12:30:54;8.07;;;3.60;;
8500;SDS011;4288;48.484;10.024;2022-10-19T12:33:24;12.23;;;3.90;;
8500;SDS011;4288;48.484;10.024;2022-10-19T12:36:04;8.17;;;3.30;;
8500;SDS011;4288;48.484;10.024;2022-10-19T12:38:45;16.33;;;3.90;;
8500;SDS011;4288;48.484;10.024;2022-10-19T12:41:21;5.33;;;3.43;;
8500;SDS011;4288;48.484;10.024;2022-10-19T12:44:04;12.53;;;3.50;;
8500;SDS011;4288;48.484;10.024;2022-10-19T12:46:47;10.50;;;3.60;;
8500;SDS011;4288;48.484;10.024;2022-10-19T12:52:14;4.80;;;2.80;;
8500;SDS011;4288;48.484;10.024;2022-10-19T12:54:57;6.33;;;3.60;;
8500;SDS011;4288;48.484;10.024;2022-10-19T12:57:57;11.80;;;4.00;;
8500;SDS011;4288;48.484;10.024;2022-10-19T13:00:30;9.63;;;3.53;;
8500;SDS011;4288;48.484;10.024;2022-10-19T13:03:02;9.90;;;4.20;;
8500;SDS011;4288;48.484;10.024;2022-10-19T13:05:33;10.67;;;3.67;;
8500;SDS011;4288;48.484;10.024;2022-10-19T13:08:01;7.70;;;4.37;;
8500;SDS011;4288;48.484;10.024;2022-10-19T13:10:31;7.37;;;3.30;;
8500;SDS011;4288;48.484;10.024;2022-10-19T13:12:59;6.50;;;3.00;;
8500;SDS011;4288;48.484;10.024;2022-10-19T13:21:43;9.63;;;3.50;;
8500;SDS011;4288;48.484;10.024;2022-10-19T13:24:38;6.73;;;3.67;;
8500;SDS011;4288;48.484;10.024;2022-10-19T13:27:18;5.83;;;3.27;;
8500;SDS011;4288;48.484;10.024;2022-10-19T13:30:01;6.67;;;3.50;;
8500;SDS011;4288;48.484;10.024;2022-10-19T13:32:34;7.60;;;3.47;;
8500;SDS011;4288;48.484;10.024;2022-10-19T13:35:28;4.67;;;2.87;;
8500;SDS011;4288;48.484;10.024;2022-10-19T13:41:00;5.13;;;3.30;;
8500;SDS011;4288;48.484;10.024;2022-10-19T13:43:37;6.63;;;2.77;;
8500;SDS011;4288;48.484;10.024;2022-10-19T13:46:14;3.40;;;2.97;;
8500;SDS011;4288;48.484;10.024;2022-10-19T13:48:57;10.87;;;4.43;;
8500;SDS011;4288;48.484;10.024;2022-10-19T13:52:01;6.10;;;2.77;;
8500;SDS011;4288;48.484;10.024;2022-10-19T13:55:03;7.27;;;3.30;;
8500;SDS011;4288;48.484;10.024;2022-10-19T13:57:53;6.80;;;3.30;;
8500;SDS011;4288;48.484;10.024;2022-10-19T14:00:49;4.93;;;2.80;;
8500;SDS011;4288;48.484;10.024;2022-10-19T14:03:32;6.50;;;2.80;;
8500;SDS011;4288;48.484;10.024;2022-10-19T14:06:21;4.23;;;3.23;;
8500;SDS011;4288;48.484;10.024;2022-10-19T14:11:58;4.90;;;2.97;;
8500;SDS011;4288;48.484;10.024;2022-10-19T14:14:39;5.30;;;3.07;;
8500;SDS011;4288;48.484;10.024;2022-10-19T14:17:15;6.43;;;2.90;;
8500;SDS011;4288;48.484;10.024;2022-10-19T14:19:45;5.30;;;3.00;;
8500;SDS011;4288;48.484;10.024;2022-10-19T14:22:19;6.60;;;2.97;;
8500;SDS011;4288;48.484;10.024;2022-10-19T14:24:51;5.37;;;3.30;;
8500;SDS011;4288;48.484;10.024;2022-10-19T14:27:26;5.40;;;2.90;;
8500;SDS011;4288;48.484;10.024;2022-10-19T14:29:55;3.63;;;2.40;;
8500;SDS011;4288;48.484;10.024;2022-10-19T14:32:24;7.40;;;3.80;;
8500;SDS011;4288;48.484;10.024;2022-10-19T14:34:56;12.03;;;3.00;;
8500;SDS011;4288;48.484;10.024;2022-10-19T14:37:33;7.87;;;3.50;;
8500;SDS011;4288;48.484;10.024;2022-10-19T14:40:03;4.70;;;3.20;;
8500;SDS011;4288;48.484;10.024;2022-10-19T14:42:34;7.87;;;4.10;;
8500;SDS011;4288;48.484;10.024;2022-10-19T14:45:11;6.90;;;3.00;;
8500;SDS011;4288;48.484;10.024;2022-10-19T14:47:49;5.60;;;3.10;;
8500;SDS011;4288;48.484;10.024;2022-10-19T14:50:27;7.40;;;3.60;;
8500;SDS011;4288;48.484;10.024;2022-10-19T14:53:12;12.83;;;3.40;;
8500;SDS011;4288;48.484;10.024;2022-10-19T14:55:56;3.47;;;2.90;;
8500;SDS011;4288;48.484;10.024;2022-10-19T14:58:27;5.70;;;3.10;;
8500;SDS011;4288;48.484;10.024;2022-10-19T15:01:03;7.03;;;3.17;;
8500;SDS011;4288;48.484;10.024;2022-10-19T15:03:31;7.43;;;3.03;;
8500;SDS011;4288;48.484;10.024;2022-10-19T15:06:00;3.53;;;2.80;;
8500;SDS011;4288;48.484;10.024;2022-10-19T15:08:33;5.17;;;3.00;;
8500;SDS011;4288;48.484;10.024;2022-10-19T15:11:07;5.73;;;3.20;;
8500;SDS011;4288;48.484;10.024;2022-10-19T15:13:47;6.00;;;3.43;;
8500;SDS011;4288;48.484;10.024;2022-10-19T15:16:41;5.37;;;2.67;;
8500;SDS011;4288;48.484;10.024;2022-10-19T15:19:20;6.80;;;3.43;;
8500;SDS011;4288;48.484;10.024;2022-10-19T15:22:05;5.60;;;2.70;;
8500;SDS011;4288;48.484;10.024;2022-10-19T15:24:39;6.93;;;2.63;;
8500;SDS011;4288;48.484;10.024;2022-10-19T15:27:20;4.53;;;3.17;;
8500;SDS011;4288;48.484;10.024;2022-10-19T15:29:54;5.93;;;2.93;;
8500;SDS011;4288;48.484;10.024;2022-10-19T15:32:23;7.87;;;3.37;;
8500;SDS011;4288;48.484;10.024;2022-10-19T15:34:57;6.13;;;3.07;;
8500;SDS011;4288;48.484;10.024;2022-10-19T15:37:24;7.23;;;3.10;;
8500;SDS011;4288;48.484;10.024;2022-10-19T15:39:51;3.33;;;2.60;;
8500;SDS011;4288;48.484;10.024;2022-10-19T15:42:22;5.27;;;3.47;;
8500;SDS011;4288;48.484;10.024;2022-10-19T15:45:01;6.10;;;2.90;;
8500;SDS011;4288;48.484;10.024;2022-10-19T15:47:29;5.00;;;2.80;;
8500;SDS011;4288;48.484;10.024;2022-10-19T15:49:59;7.37;;;3.33;;
8500;SDS011;4288;48.484;10.024;2022-10-19T15:52:27;10.20;;;5.07;;
8500;SDS011;4288;48.484;10.024;2022-10-19T15:54:58;13.83;;;5.50;;
8500;SDS011;4288;48.484;10.024;2022-10-19T15:57:27;13.00;;;4.57;;
8500;SDS011;4288;48.484;10.024;2022-10-19T15:59:57;9.33;;;4.50;;